Time;durP1;ratioP1;P1;durP2;ratioP2;P2;SDS_P1;SDS_P2;PMS_P1;PMS_P2;Temp;Humidity;BMP_temperature;BMP_pressure;BME280_temperature;BME280_humidity;BME280_pressure;Samples;Min_cycle;Max_cycle;Signal;HPM_P1;HPM_P2
2023/06/30 00:01:55;;;;;;;12.25;11.13;;;410.40;2355.20;;;;;;5048955;28;20025;-62
2023/06/30 00:04:22;;;;;;;12.40;11.20;;;410.40;2355.20;;;;;;5049509;28;20624;-60
2023/06/30 00:06:51;;;;;;;13.23;11.82;;;410.40;2355.20;;;;;;5048751;28;20025;-59
2023/06/30 00:09:20;;;;;;;10.70;9.63;;;410.40;2355.20;;;;;;5049290;28;20492;-60
2023/06/30 00:11:49;;;;;;;11.25;10.25;;;410.40;2355.20;;;;;;5048831;28;20486;-59
2023/06/30 00:14:14;;;;;;;9.95;8.90;;;410.40;2355.20;;;;;;5049457;28;20376;-59
2023/06/30 00:16:40;;;;;;;10.18;9.10;;;410.40;2355.20;;;;;;5048990;28;20025;-59
2023/06/30 00:19:06;;;;;;;11.57;10.43;;;410.30;2355.20;;;;;;5048983;28;20029;-58
2023/06/30 00:21:32;;;;;;;11.13;9.98;;;410.30;2355.20;;;;;;5049308;28;20022;-58
2023/06/30 00:24:01;;;;;;;10.27;9.27;;;410.30;2355.20;;;;;;5049040;28;20025;-60
2023/06/30 00:26:28;;;;;;;11.23;10.05;;;410.30;2355.20;;;;;;5048333;28;20017;-61
2023/06/30 00:28:54;;;;;;;12.27;11.02;;;410.30;2355.20;;;;;;5048910;28;20036;-60
2023/06/30 00:31:20;;;;;;;10.85;9.80;;;410.20;2355.20;;;;;;5048608;28;20449;-60
2023/06/30 00:33:46;;;;;;;12.85;10.00;;;410.20;2355.20;;;;;;5048596;28;20399;-60
2023/06/30 00:36:11;;;;;;;10.40;9.40;;;410.20;2355.20;;;;;;5049240;28;20021;-60
2023/06/30 00:38:37;;;;;;;10.55;9.10;;;410.20;2355.20;;;;;;5048126;28;20049;-60
2023/06/30 00:41:03;;;;;;;11.68;10.02;;;410.20;2355.20;;;;;;5048584;28;20082;-60
2023/06/30 00:43:28;;;;;;;10.73;9.63;;;410.20;2355.20;;;;;;5048905;28;20021;-59
2023/06/30 00:45:54;;;;;;;11.65;10.50;;;410.20;2355.20;;;;;;5038525;28;20032;-60
2023/06/30 00:48:20;;;;;;;11.13;10.02;;;410.10;2355.20;;;;;;5048788;28;20471;-59
2023/06/30 00:50:46;;;;;;;10.70;9.75;;;410.10;2355.20;;;;;;5048372;28;20078;-60
2023/06/30 00:53:13;;;;;;;12.00;10.82;;;410.10;2355.20;;;;;;5048781;28;20078;-60
2023/06/30 00:55:40;;;;;;;11.07;9.82;;;410.10;2355.20;;;;;;5048599;28;20112;-59
2023/06/30 00:58:06;;;;;;;11.75;10.40;;;410.10;2355.20;;;;;;5048743;28;20052;-58
2023/06/30 01:00:32;;;;;;;11.20;10.10;;;410.10;2355.20;;;;;;5035191;28;20459;-61
2023/06/30 01:03:05;;;;;;;10.68;9.70;;;410.10;2355.20;;;;;;5048275;28;20024;-60
2023/06/30 01:05:43;;;;;;;;;;;410.00;2355.20;;;;;;5048783;28;20371;-59
2023/06/30 01:08:34;;;;;;;13.38;10.75;;;410.00;2355.20;;;;;;5052178;28;20320;-68
2023/06/30 01:11:00;;;;;;;11.55;10.38;;;409.90;2355.20;;;;;;5052524;28;20029;-60
2023/06/30 01:13:26;;;;;;;11.73;10.00;;;409.90;2355.20;;;;;;5051877;28;20020;-60
2023/06/30 01:15:54;;;;;;;11.95;10.25;;;409.90;2355.20;;;;;;5052480;28;20021;-59
2023/06/30 01:18:20;;;;;;;11.13;10.00;;;409.90;2355.20;;;;;;5052353;28;20020;-59
2023/06/30 01:20:47;;;;;;;11.70;10.50;;;409.90;2355.20;;;;;;5052488;28;20036;-60
2023/06/30 01:23:37;;;;;;;11.70;10.50;;;409.90;2355.20;;;;;;5051877;28;20013;-60
2023/06/30 01:26:04;;;;;;;13.68;9.85;;;409.90;2355.20;;;;;;5051573;28;20052;-60
2023/06/30 01:28:33;;;;;;;11.57;9.90;;;409.90;2355.20;;;;;;5052169;28;20032;-60
2023/06/30 01:30:59;;;;;;;11.40;10.25;;;409.70;2355.20;;;;;;5052125;28;20020;-59
2023/06/30 01:33:26;;;;;;;13.07;11.00;;;409.70;2355.20;;;;;;5052392;28;20021;-59
2023/06/30 01:35:52;;;;;;;11.75;10.55;;;409.60;2355.20;;;;;;5052063;28;20025;-61
2023/06/30 01:38:18;;;;;;;13.20;11.82;;;409.60;2355.20;;;;;;5051466;28;20056;-60
2023/06/30 01:40:45;;;;;;;12.27;10.95;;;384.90;2329.60;;;;;;5051668;28;20033;-67
2023/06/30 01:43:12;;;;;;;14.85;10.82;;;384.90;2329.60;;;;;;5051960;28;20059;-59
2023/06/30 01:45:39;;;;;;;17.15;11.32;;;409.60;2355.20;;;;;;5052181;28;20021;-59
2023/06/30 01:48:05;;;;;;;12.77;11.63;;;409.60;2355.20;;;;;;5052006;28;20043;-60
2023/06/30 01:50:32;;;;;;;12.43;11.02;;;409.60;2355.20;;;;;;5051628;28;20107;-59
2023/06/30 01:52:59;;;;;;;12.70;10.45;;;409.60;2355.20;;;;;;5051793;28;20471;-60
2023/06/30 01:55:28;;;;;;;13.25;11.43;;;409.60;2355.20;;;;;;5051639;28;20122;-60
2023/06/30 01:57:54;;;;;;;13.23;11.93;;;384.90;2329.60;;;;;;5042209;28;20030;-60
2023/06/30 02:00:20;;;;;;;13.90;11.27;;;384.90;2329.60;;;;;;5048245;28;20039;-59
2023/06/30 02:02:46;;;;;;;18.52;10.98;;;384.90;2329.60;;;;;;5051203;28;20096;-59
2023/06/30 02:05:12;;;;;;;12.75;11.65;;;384.70;2329.60;;;;;;5051465;28;20025;-58
2023/06/30 02:07:38;;;;;;;13.52;11.18;;;384.70;2329.60;;;;;;5051035;28;20044;-60
2023/06/30 02:10:04;;;;;;;14.55;12.20;;;384.70;2329.60;;;;;;5051150;28;20086;-59
2023/06/30 02:12:30;;;;;;;13.00;11.63;;;384.70;2329.60;;;;;;5051491;28;20475;-59
2023/06/30 02:14:55;;;;;;;12.70;11.45;;;384.60;2329.60;;;;;;5051366;28;20032;-59
2023/06/30 02:17:32;;;;;;;12.77;11.00;;;384.60;2329.60;;;;;;5051210;28;20017;-58
2023/06/30 02:20:05;;;;;;;12.23;11.02;;;384.60;2329.60;;;;;;5050797;28;20029;-60
2023/06/30 02:22:32;;;;;;;12.73;11.52;;;384.60;2329.60;;;;;;5051188;28;20104;-60
2023/06/30 02:24:57;;;;;;;12.52;11.35;;;384.50;2329.60;;;;;;5050542;28;20021;-61
2023/06/30 02:27:27;;;;;;;16.13;11.57;;;384.60;2329.60;;;;;;5051231;28;20044;-67
2023/06/30 02:29:53;;;;;;;15.13;12.27;;;384.50;2329.60;;;;;;5051217;28;20505;-60
2023/06/30 02:32:19;;;;;;;13.55;12.18;;;384.40;2329.60;;;;;;5051202;28;20029;-59
2023/06/30 02:34:45;;;;;;;13.43;11.40;;;384.40;2329.60;;;;;;5050832;28;20352;-59
2023/06/30 02:37:10;;;;;;;13.02;11.75;;;384.40;2329.60;;;;;;5050777;28;20021;-59
2023/06/30 02:39:36;;;;;;;13.55;11.18;;;384.40;2329.60;;;;;;5050512;28;20478;-59
2023/06/30 02:42:02;;;;;;;12.07;10.93;;;384.40;2329.60;;;;;;5051078;28;20024;-59
2023/06/30 02:44:28;;;;;;;13.13;11.82;;;384.40;2329.60;;;;;;5050441;28;20028;-59
2023/06/30 02:46:54;;;;;;;12.60;11.38;;;384.30;2329.60;;;;;;5050671;28;20024;-59
2023/06/30 02:49:20;;;;;;;13.45;12.15;;;384.40;2329.60;;;;;;5050510;28;20033;-60
2023/06/30 02:51:45;;;;;;;13.00;11.38;;;384.30;2329.60;;;;;;5050746;28;20393;-59
2023/06/30 02:54:11;;;;;;;12.70;11.45;;;384.30;2329.60;;;;;;5050436;28;20116;-59
2023/06/30 02:56:36;;;;;;;13.05;11.85;;;384.20;2329.60;;;;;;5050855;28;20021;-60
2023/06/30 02:59:02;;;;;;;13.07;11.77;;;384.30;2329.60;;;;;;5049868;28;20497;-59
2023/06/30 03:01:28;;;;;;;11.65;10.55;;;384.30;2329.60;;;;;;5050154;28;20083;-61
2023/06/30 03:03:54;;;;;;;13.00;11.60;;;384.30;2329.60;;;;;;5050135;28;20036;-59
2023/06/30 03:06:20;;;;;;;12.27;11.07;;;384.40;2329.60;;;;;;5050497;28;20030;-60
2023/06/30 03:08:46;;;;;;;12.32;10.82;;;384.40;2329.60;;;;;;5049524;28;20076;-59
2023/06/30 03:11:12;;;;;;;11.38;10.32;;;384.40;2329.60;;;;;;5050416;28;20037;-59
2023/06/30 03:13:37;;;;;;;13.80;12.40;;;384.40;2329.60;;;;;;5049780;28;20071;-59
2023/06/30 03:16:04;;;;;;;12.18;11.05;;;384.40;2329.60;;;;;;5050069;28;20029;-60
2023/06/30 03:18:30;;;;;;;12.35;11.05;;;384.40;2329.60;;;;;;5050043;28;20116;-60
2023/06/30 03:20:56;;;;;;;19.63;12.88;;;384.40;2329.60;;;;;;5049940;28;20057;-60
2023/06/30 03:23:21;;;;;;;12.82;11.50;;;384.50;2329.60;;;;;;5049968;28;20100;-60
2023/06/30 03:25:47;;;;;;;13.38;11.73;;;384.60;2329.60;;;;;;5049660;28;20075;-60
2023/06/30 03:28:13;;;;;;;11.60;10.43;;;384.70;2329.60;;;;;;5049622;28;20440;-60
2023/06/30 03:30:39;;;;;;;12.63;11.32;;;384.70;2329.60;;;;;;5049860;28;20025;-60
2023/06/30 03:33:05;;;;;;;11.88;10.68;;;384.90;2329.60;;;;;;5049643;28;20104;-59
2023/06/30 03:35:30;;;;;;;11.13;9.73;;;384.90;2329.60;;;;;;5049667;28;20471;-59
2023/06/30 03:37:56;;;;;;;11.60;10.40;;;409.60;2355.20;;;;;;5044603;28;20098;-59
2023/06/30 03:40:22;;;;;;;11.70;10.50;;;409.70;2355.20;;;;;;5041640;28;20070;-60
2023/06/30 03:42:47;;;;;;;11.98;9.90;;;409.70;2355.20;;;;;;5031217;28;20376;-59
2023/06/30 03:45:13;;;;;;;13.10;9.95;;;409.70;2355.20;;;;;;5041589;28;20029;-59
2023/06/30 03:47:39;;;;;;;11.48;10.20;;;409.80;2355.20;;;;;;5049379;28;20057;-59
2023/06/30 03:50:05;;;;;;;13.63;11.73;;;409.90;2355.20;;;;;;5049146;28;20028;-60
2023/06/30 03:52:31;;;;;;;12.20;11.00;;;409.90;2355.20;;;;;;5044469;28;20375;-60
2023/06/30 03:54:57;;;;;;;11.02;9.95;;;409.90;2355.20;;;;;;5040637;28;20028;-64
2023/06/30 03:57:22;;;;;;;10.25;9.25;;;410.00;2355.20;;;;;;5049722;28;20040;-59
2023/06/30 03:59:48;;;;;;;9.15;8.35;;;410.10;2355.20;;;;;;5049881;28;20024;-60
2023/06/30 04:02:14;;;;;;;11.00;10.00;;;410.30;2355.20;;;;;;5049077;28;20506;-61
2023/06/30 04:04:39;;;;;;;13.60;10.48;;;410.40;2355.20;;;;;;5049396;28;20033;-59
2023/06/30 04:07:05;;;;;;;11.40;10.32;;;410.40;2355.20;;;;;;5031349;28;20102;-59
2023/06/30 04:09:31;;;;;;;12.07;10.65;;;410.50;2355.20;;;;;;5040469;28;20036;-60
2023/06/30 04:11:57;;;;;;;13.38;11.95;;;410.40;2355.20;;;;;;5036040;28;20028;-59
2023/06/30 04:14:22;;;;;;;13.75;11.43;;;410.40;2355.20;;;;;;5039031;28;20033;-59
2023/06/30 04:16:48;;;;;;;11.90;10.70;;;410.30;2355.20;;;;;;5046816;28;20021;-60
2023/06/30 04:19:14;;;;;;;12.23;11.02;;;410.50;2355.20;;;;;;5049350;28;20029;-60
2023/06/30 04:21:39;;;;;;;11.70;10.55;;;410.50;2355.20;;;;;;5035786;28;20051;-59
2023/06/30 04:24:05;;;;;;;13.05;10.23;;;435.20;2355.20;;;;;;5048627;28;20021;-59
2023/06/30 04:26:31;;;;;;;13.32;11.13;;;435.30;2355.20;;;;;;5049014;28;20059;-59
2023/06/30 04:28:57;;;;;;;14.05;9.63;;;435.50;2355.20;;;;;;5049128;28;20064;-59
2023/06/30 04:31:26;;;;;;;10.13;9.13;;;435.70;2355.20;;;;;;5049312;28;20105;-60
2023/06/30 04:33:52;;;;;;;10.65;9.50;;;435.90;2355.20;;;;;;5049214;28;20795;-59
2023/06/30 04:36:20;;;;;;;9.27;8.40;;;512.60;2380.80;;;;;;5048847;28;20024;-60
2023/06/30 04:38:48;;;;;;;10.20;8.40;;;640.00;2201.60;;;;;;5048525;28;20061;-60
2023/06/30 04:41:15;;;;;;;9.43;8.52;;;666.30;1996.80;;;;;;5051917;28;20036;-60
2023/06/30 04:43:42;;;;;;;9.55;8.23;;;742.70;1792.00;;;;;;5053187;28;20025;-59
2023/06/30 04:46:08;;;;;;;9.13;8.32;;;793.70;1664.00;;;;;;5053295;28;20025;-62
2023/06/30 04:48:34;;;;;;;12.40;7.80;;;819.30;1561.60;;;;;;5040464;28;20056;-60
2023/06/30 04:51:00;;;;;;;8.80;7.80;;;845.20;1510.40;;;;;;5052620;28;20028;-61
2023/06/30 04:53:25;;;;;;;8.70;7.95;;;870.80;1433.60;;;;;;5052954;28;20021;-60
2023/06/30 04:55:51;;;;;;;15.02;8.25;;;871.20;1382.40;;;;;;5049744;28;20029;-69
2023/06/30 04:58:18;;;;;;;8.32;7.65;;;896.20;1356.80;;;;;;5052766;28;20449;-60
2023/06/30 05:00:44;;;;;;;7.78;7.07;;;896.90;1305.60;;;;;;5052630;28;20020;-60
2023/06/30 05:03:10;;;;;;;8.07;7.18;;;921.90;1305.60;;;;;;5052600;28;20029;-61
2023/06/30 05:05:36;;;;;;;8.15;7.03;;;922.50;1280.00;;;;;;5052024;28;20460;-60
2023/06/30 05:08:01;;;;;;;7.43;6.63;;;922.50;1280.00;;;;;;5052544;28;20049;-61
2023/06/30 05:10:27;;;;;;;7.88;7.20;;;922.40;1280.00;;;;;;5052022;28;20025;-61
2023/06/30 05:12:53;;;;;;;7.57;6.88;;;948.10;1254.40;;;;;;5052807;28;20083;-61
2023/06/30 05:15:18;;;;;;;8.93;7.82;;;948.10;1203.20;;;;;;5052495;28;20025;-60
2023/06/30 05:17:44;;;;;;;11.20;7.85;;;973.50;1203.20;;;;;;5052341;28;20375;-62
2023/06/30 05:20:10;;;;;;;9.07;8.27;;;998.60;1203.20;;;;;;5052359;28;20025;-60
2023/06/30 05:22:36;;;;;;;9.35;8.13;;;1024.00;1152.00;;;;;;5052173;28;20021;-60
2023/06/30 05:25:02;;;;;;;12.40;7.78;;;1024.90;1126.40;;;;;;5052165;28;20032;-60
2023/06/30 05:27:28;;;;;;;9.35;8.55;;;;;;;;;;5051851;28;20115;-61
2023/06/30 05:29:54;;;;;;;9.23;8.07;;;1024.40;1152.00;;;;;;5052054;28;20028;-60
2023/06/30 05:32:20;;;;;;;9.25;8.38;;;1075.40;1075.20;;;;;;5052277;28;20530;-59
2023/06/30 05:34:46;;;;;;;9.05;8.15;;;1049.70;1126.40;;;;;;5051809;28;20033;-60
2023/06/30 05:37:12;;;;;;;9.15;8.35;;;1075.70;1075.20;;;;;;5051834;28;20442;-61
2023/06/30 05:39:38;;;;;;;8.77;8.02;;;1100.90;1075.20;;;;;;5052157;28;20025;-60
2023/06/30 05:42:04;;;;;;;9.35;8.57;;;1101.60;1049.60;;;;;;5052122;28;20079;-60
2023/06/30 05:44:30;;;;;;;9.40;8.60;;;1101.70;1024.00;;;;;;5051841;28;20085;-61
2023/06/30 05:46:56;;;;;;;10.68;9.88;;;1127.10;1024.00;;;;;;5051874;28;20059;-60
2023/06/30 05:49:22;;;;;;;11.35;10.40;;;1126.50;1049.60;;;;;;5051999;28;20060;-62
2023/06/30 05:51:48;;;;;;;13.88;12.68;;;1126.90;1049.60;;;;;;5050898;28;20025;-61
2023/06/30 05:54:14;;;;;;;13.23;11.98;;;1127.30;1024.00;;;;;;5047103;28;20025;-60
2023/06/30 05:56:40;;;;;;;13.68;12.30;;;1126.80;1024.00;;;;;;5050040;28;20025;-61
2023/06/30 05:59:10;;;;;;;13.98;12.60;;;1127.10;1024.00;;;;;;5051594;28;20060;-59
2023/06/30 06:01:38;;;;;;;13.57;12.27;;;1152.60;998.40;;;;;;5051571;28;20020;-60
2023/06/30 06:04:08;;;;;;;12.25;11.13;;;1177.60;972.80;;;;;;5050757;28;20540;-61
2023/06/30 06:06:33;;;;;;;12.57;11.25;;;1152.90;972.80;;;;;;5051483;28;20029;-61
2023/06/30 06:08:59;;;;;;;12.65;11.65;;;1177.60;972.80;;;;;;5051036;28;20037;-60
2023/06/30 06:11:24;;;;;;;12.50;11.48;;;1178.30;947.20;;;;;;5050647;28;20028;-63
2023/06/30 06:13:50;;;;;;;13.07;11.82;;;1203.60;947.20;;;;;;5049921;28;20167;-67
2023/06/30 06:16:16;;;;;;;12.93;11.95;;;1152.70;972.80;;;;;;5035598;28;20024;-68
2023/06/30 06:18:42;;;;;;;13.25;12.05;;;1203.60;947.20;;;;;;5050053;28;20029;-62
2023/06/30 06:21:07;;;;;;;13.25;12.18;;;1203.20;947.20;;;;;;5050256;28;20036;-61
2023/06/30 06:23:34;;;;;;;13.30;12.10;;;1203.70;947.20;;;;;;5049683;28;20480;-61
2023/06/30 06:26:00;;;;;;;12.32;11.32;;;1203.30;972.80;;;;;;5049183;28;20025;-68
2023/06/30 06:28:25;;;;;;;14.07;12.55;;;1178.10;972.80;;;;;;5049299;28;20044;-62
2023/06/30 06:30:51;;;;;;;14.25;12.60;;;1203.60;947.20;;;;;;5050046;28;20082;-61
2023/06/30 06:33:17;;;;;;;13.75;12.35;;;1203.90;947.20;;;;;;5049221;28;20021;-68
2023/06/30 06:35:43;;;;;;;14.50;13.27;;;1203.30;972.80;;;;;;5048989;28;20033;-60
2023/06/30 06:38:09;;;;;;;13.40;12.05;;;1228.80;972.80;;;;;;5049726;28;20041;-61
2023/06/30 06:40:35;;;;;;;15.70;14.05;;;1203.90;947.20;;;;;;5049850;28;20562;-61
2023/06/30 06:43:00;;;;;;;21.75;14.40;;;1229.40;947.20;;;;;;5050632;28;20100;-62
2023/06/30 06:45:26;;;;;;;17.80;14.57;;;1203.90;947.20;;;;;;5050798;28;20098;-61
2023/06/30 06:48:24;;;;;;;21.65;17.83;;;1229.30;947.20;;;;;;5050797;28;20033;-61
2023/06/30 06:50:51;;;;;;;18.45;14.43;;;1229.70;921.60;;;;;;5049743;28;20025;-61
2023/06/30 06:53:20;;;;;;;18.98;15.02;;;1228.80;947.20;;;;;;5049956;28;20386;-61
2023/06/30 06:55:47;;;;;;;16.48;14.25;;;1229.30;947.20;;;;;;5046287;28;20102;-61
2023/06/30 06:58:13;;;;;;;20.88;14.05;;;1229.30;921.60;;;;;;5040562;28;20022;-61
2023/06/30 07:00:39;;;;;;;21.27;14.25;;;;;;;;;;5050440;28;20018;-72
2023/06/30 07:03:04;;;;;;;23.85;13.73;;;1254.40;947.20;;;;;;5049776;28;20049;-66
2023/06/30 07:05:31;;;;;;;19.48;12.95;;;1280.40;870.40;;;;;;5049919;28;20057;-62
2023/06/30 07:07:57;;;;;;;17.60;13.38;;;1254.40;921.60;;;;;;5050241;28;20411;-61
2023/06/30 07:10:23;;;;;;;16.33;12.25;;;1254.40;921.60;;;;;;5049619;28;20027;-61
2023/06/30 07:12:49;;;;;;;14.38;12.85;;;1228.90;921.60;;;;;;5050206;28;20116;-61
2023/06/30 07:15:15;;;;;;;15.13;12.45;;;1229.30;896.00;;;;;;5050171;28;20088;-61
2023/06/30 07:17:40;;;;;;;16.42;12.70;;;1229.70;896.00;;;;;;5050080;28;20025;-62
2023/06/30 07:20:06;;;;;;;15.98;12.57;;;1255.10;896.00;;;;;;5049794;28;20037;-71
2023/06/30 07:22:33;;;;;;;15.13;12.55;;;1203.70;921.60;;;;;;5049356;28;20112;-72
2023/06/30 07:25:02;;;;;;;13.10;11.70;;;1254.60;921.60;;;;;;5050243;28;20432;-59
2023/06/30 07:27:28;;;;;;;16.85;11.30;;;1229.20;947.20;;;;;;5049067;28;20037;-59
2023/06/30 07:29:53;;;;;;;12.68;11.32;;;1228.90;972.80;;;;;;5050193;28;20178;-61
2023/06/30 07:32:19;;;;;;;13.43;12.18;;;1203.70;947.20;;;;;;5049796;28;20075;-61
2023/06/30 07:34:45;;;;;;;19.15;13.45;;;1203.80;947.20;;;;;;5049819;28;20491;-72
2023/06/30 07:37:10;;;;;;;13.00;11.90;;;1203.90;947.20;;;;;;5049103;28;20025;-59
2023/06/30 07:39:36;;;;;;;13.07;11.80;;;1228.80;972.80;;;;;;5049639;28;20028;-60
2023/06/30 07:42:02;;;;;;;15.85;12.02;;;1229.70;921.60;;;;;;5036719;28;20029;-59
2023/06/30 07:44:28;;;;;;;16.15;12.40;;;1255.30;921.60;;;;;;5049595;28;20353;-72
2023/06/30 07:46:53;;;;;;;13.20;11.80;;;1254.90;947.20;;;;;;5049193;28;20029;-60
2023/06/30 07:49:21;;;;;;;16.20;12.60;;;1280.70;896.00;;;;;;5049441;28;20108;-59
2023/06/30 07:51:47;;;;;;;20.45;12.52;;;1254.80;947.20;;;;;;5049506;28;20025;-60
2023/06/30 07:54:13;;;;;;;16.98;12.55;;;1254.90;947.20;;;;;;5049416;28;20408;-58
2023/06/30 07:56:39;;;;;;;13.75;11.90;;;1280.70;896.00;;;;;;5049547;28;20021;-60
2023/06/30 07:59:05;;;;;;;12.95;11.73;;;;;;;;;;5049216;28;20051;-71
2023/06/30 08:01:31;;;;;;;12.73;11.52;;;1229.50;947.20;;;;;;5049553;28;20017;-60
2023/06/30 08:03:57;;;;;;;11.70;10.80;;;1203.70;972.80;;;;;;5049102;28;20029;-59
2023/06/30 08:06:23;;;;;;;11.60;10.90;;;1177.60;972.80;;;;;;5049603;28;20029;-73
2023/06/30 08:08:48;;;;;;;10.98;10.18;;;1152.60;998.40;;;;;;5037439;28;20033;-66
2023/06/30 08:11:14;;;;;;;11.73;10.70;;;1152.90;972.80;;;;;;5034615;28;20386;-58
2023/06/30 08:13:40;;;;;;;11.07;9.98;;;1152.40;998.40;;;;;;5049657;28;20101;-58
2023/06/30 08:16:05;;;;;;;11.30;10.40;;;1101.30;1024.00;;;;;;5048807;28;20634;-59
2023/06/30 08:18:31;;;;;;;10.10;9.02;;;1049.90;1126.40;;;;;;5048834;28;20035;-58
2023/06/30 08:20:57;;;;;;;13.20;8.77;;;973.50;1203.20;;;;;;5049115;28;20032;-58
2023/06/30 08:23:24;;;;;;;9.27;7.57;;;922.50;1254.40;;;;;;5049202;28;20036;-59
2023/06/30 08:25:53;;;;;;;15.93;7.55;;;896.90;1280.00;;;;;;5049343;28;20108;-58
2023/06/30 08:28:19;;;;;;;7.70;7.00;;;870.70;1356.80;;;;;;5049069;28;20071;-59
2023/06/30 08:30:44;;;;;;;8.60;6.65;;;845.30;1408.00;;;;;;5049104;28;20021;-60
2023/06/30 08:33:10;;;;;;;8.90;6.68;;;845.20;1408.00;;;;;;5049402;28;20430;-60
2023/06/30 08:35:36;;;;;;;8.40;7.18;;;820.00;1382.40;;;;;;5049020;28;20025;-60
2023/06/30 08:38:02;;;;;;;8.13;7.28;;;820.10;1408.00;;;;;;5048305;28;20044;-60
2023/06/30 08:40:30;;;;;;;8.52;6.72;;;844.80;1459.20;;;;;;5049040;28;20029;-60
2023/06/30 08:42:59;;;;;;;6.95;6.35;;;845.00;1459.20;;;;;;5022462;28;20021;-60
2023/06/30 08:45:28;;;;;;;7.25;5.95;;;845.10;1408.00;;;;;;5048444;28;20052;-61
2023/06/30 08:47:59;;;;;;;8.88;6.00;;;845.10;1382.40;;;;;;5048717;28;20029;-60
2023/06/30 08:50:26;;;;;;;6.88;5.45;;;844.80;1408.00;;;;;;5048529;28;20108;-60
2023/06/30 08:52:52;;;;;;;7.03;5.30;;;794.50;1382.40;;;;;;5048882;28;20079;-60
2023/06/30 08:55:18;;;;;;;10.13;5.57;;;819.20;1382.40;;;;;;5048588;28;20029;-60
2023/06/30 08:57:45;;;;;;;8.30;6.43;;;794.40;1408.00;;;;;;5048746;28;20506;-61
2023/06/30 09:00:11;;;;;;;8.07;5.82;;;819.30;1356.80;;;;;;5035550;28;20025;-60
2023/06/30 09:02:38;;;;;;;7.50;5.57;;;794.50;1382.40;;;;;;5048616;28;20021;-60
2023/06/30 09:05:07;;;;;;;7.50;6.18;;;794.50;1433.60;;;;;;5048359;28;20025;-61
2023/06/30 09:07:41;;;;;;;6.57;5.95;;;794.50;1408.00;;;;;;5048194;28;20021;-59
2023/06/30 09:10:09;;;;;;;5.65;5.07;;;819.20;1408.00;;;;;;5048487;28;20165;-59
2023/06/30 09:12:38;;;;;;;10.30;4.88;;;794.20;1408.00;;;;;;5048629;28;20086;-60
2023/06/30 09:15:06;;;;;;;5.30;4.80;;;794.00;1382.40;;;;;;5048010;28;20036;-60
2023/06/30 09:17:32;;;;;;;7.82;5.28;;;794.00;1408.00;;;;;;5048529;28;20066;-59
2023/06/30 09:19:58;;;;;;;5.18;4.68;;;;;;;;;;5048443;28;20029;-60
2023/06/30 09:22:25;;;;;;;6.50;5.07;;;793.70;1382.40;;;;;;5048370;28;20477;-60
2023/06/30 09:24:51;;;;;;;6.28;4.88;;;768.80;1382.40;;;;;;5048341;28;20029;-59
2023/06/30 09:27:17;;;;;;;6.43;5.45;;;793.70;1382.40;;;;;;5049823;28;20108;-60
2023/06/30 09:29:55;;;;;;;5.97;5.38;;;768.80;1356.80;;;;;;5052434;28;20828;-59
2023/06/30 09:32:29;;;;;;;5.70;5.10;;;768.80;1356.80;;;;;;5052275;28;20021;-59
2023/06/30 09:34:55;;;;;;;5.80;5.22;;;768.80;1408.00;;;;;;5052026;28;20021;-59
2023/06/30 09:37:21;;;;;;;8.75;4.68;;;768.90;1382.40;;;;;;5051857;28;20372;-59
2023/06/30 09:39:51;;;;;;;5.22;4.82;;;768.70;1408.00;;;;;;5045615;28;20383;-60
2023/06/30 09:42:17;;;;;;;6.53;5.38;;;768.00;1408.00;;;;;;5045853;28;20056;-60
2023/06/30 09:44:42;;;;;;;15.98;8.45;;;768.10;1382.40;;;;;;5052108;28;20099;-69
2023/06/30 09:47:12;;;;;;;7.65;6.32;;;768.00;1382.40;;;;;;5051657;28;20471;-60
2023/06/30 09:49:39;;;;;;;9.43;5.03;;;768.40;1433.60;;;;;;5051973;28;20470;-61
2023/06/30 09:52:06;;;;;;;5.68;5.18;;;768.50;1484.80;;;;;;5051315;28;20029;-60
2023/06/30 09:54:33;;;;;;;31.70;11.05;;;768.90;1408.00;;;;;;5051981;28;20104;-60
2023/06/30 09:57:05;;;;;;;7.28;5.85;;;768.90;1382.40;;;;;;5051396;28;20100;-60
2023/06/30 09:59:31;;;;;;;6.28;5.07;;;768.40;1382.40;;;;;;5052224;28;20029;-59
2023/06/30 10:01:58;;;;;;;5.72;4.55;;;793.60;1433.60;;;;;;5051565;28;20025;-60
2023/06/30 10:04:25;;;;;;;6.43;5.28;;;768.70;1382.40;;;;;;5051410;28;20565;-60
2023/06/30 10:06:51;;;;;;;7.70;5.55;;;768.80;1356.80;;;;;;5051632;28;20100;-59
2023/06/30 10:09:20;;;;;;;6.45;5.10;;;768.90;1356.80;;;;;;5051256;28;20037;-60
2023/06/30 10:11:53;;;;;;;5.75;5.25;;;768.70;1382.40;;;;;;5050967;28;20151;-60
2023/06/30 10:14:28;;;;;;;6.07;4.85;;;768.50;1356.80;;;;;;5051520;28;20036;-59
2023/06/30 10:16:57;;;;;;;4.70;4.25;;;768.20;1408.00;;;;;;5051289;28;20033;-59
2023/06/30 10:19:24;;;;;;;5.72;5.03;;;768.40;1408.00;;;;;;5051427;28;20546;-59
2023/06/30 10:21:50;;;;;;;5.25;4.75;;;768.30;1408.00;;;;;;5051397;28;20041;-59
2023/06/30 10:24:23;;;;;;;5.22;4.72;;;768.40;1382.40;;;;;;5051187;28;20060;-60
2023/06/30 10:26:49;;;;;;;5.63;5.13;;;768.50;1433.60;;;;;;5050758;28;20032;-59
2023/06/30 10:29:15;;;;;;;6.15;5.55;;;768.00;1408.00;;;;;;5051353;28;20029;-60
2023/06/30 10:31:42;;;;;;;5.70;5.00;;;743.30;1382.40;;;;;;5051109;28;20028;-60
2023/06/30 10:34:09;;;;;;;5.32;4.82;;;743.20;1408.00;;;;;;5051026;28;20029;-59
2023/06/30 10:36:36;;;;;;;6.70;5.40;;;743.30;1408.00;;;;;;5050506;28;20013;-60
2023/06/30 10:39:02;;;;;;;6.28;4.97;;;743.10;1433.60;;;;;;5050204;28;20057;-59
2023/06/30 10:41:28;;;;;;;5.43;4.93;;;743.10;1408.00;;;;;;5050686;28;20534;-61
2023/06/30 10:44:03;;;;;;;5.55;5.05;;;768.00;1484.80;;;;;;5050761;28;20124;-60
2023/06/30 10:46:52;;;;;;;5.75;5.15;;;768.10;1459.20;;;;;;5051025;28;20017;-60
2023/06/30 10:49:23;;;;;;;6.97;5.78;;;743.10;1408.00;;;;;;5050896;28;20032;-59
2023/06/30 10:51:50;;;;;;;5.82;5.18;;;743.20;1459.20;;;;;;5038589;28;20108;-61
2023/06/30 10:54:27;;;;;;;6.38;5.32;;;768.10;1484.80;;;;;;5050178;28;20036;-61
2023/06/30 10:57:05;;;;;;;5.55;5.05;;;768.10;1408.00;;;;;;5049443;28;20032;-60
2023/06/30 10:59:42;;;;;;;5.90;5.40;;;768.00;1433.60;;;;;;5051056;28;20029;-60
2023/06/30 11:02:17;;;;;;;8.55;5.20;;;768.00;1459.20;;;;;;5050033;28;20021;-60
2023/06/30 11:04:46;;;;;;;9.60;5.80;;;743.20;1408.00;;;;;;5050609;28;20032;-60
2023/06/30 11:07:22;;;;;;;7.90;5.85;;;768.00;1459.20;;;;;;5050279;28;20029;-60
2023/06/30 11:09:48;;;;;;;6.20;5.32;;;743.30;1459.20;;;;;;5049688;28;20486;-60
2023/06/30 11:12:23;;;;;;;8.93;5.47;;;768.00;1433.60;;;;;;5050375;28;20060;-60
2023/06/30 11:15:00;;;;;;;6.85;4.85;;;742.90;1433.60;;;;;;5050476;28;20425;-63
2023/06/30 11:17:51;;;;;;;7.72;5.65;;;743.10;1587.20;;;;;;5050442;28;20025;-61
2023/06/30 11:20:18;;;;;;;6.82;5.60;;;743.00;1433.60;;;;;;5049193;28;20400;-60
2023/06/30 11:22:57;;;;;;;6.72;5.53;;;743.00;1433.60;;;;;;5049852;28;20032;-61
2023/06/30 11:25:23;;;;;;;5.72;5.05;;;743.20;1510.40;;;;;;5050219;28;20033;-61
2023/06/30 11:27:49;;;;;;;6.43;5.82;;;743.10;1484.80;;;;;;5050235;28;20025;-60
2023/06/30 11:30:18;;;;;;;7.18;5.40;;;743.30;1536.00;;;;;;5050259;28;20033;-60
2023/06/30 11:32:45;;;;;;;5.82;5.22;;;743.00;1433.60;;;;;;5049314;28;20044;-59
2023/06/30 11:35:13;;;;;;;9.05;5.95;;;743.20;1484.80;;;;;;5049974;28;20032;-60
2023/06/30 11:37:38;;;;;;;6.10;5.07;;;743.00;1484.80;;;;;;5049339;28;21995;-65
2023/06/30 11:40:08;;;;;;;8.73;5.82;;;743.10;1459.20;;;;;;5040874;28;20061;-60
2023/06/30 11:42:38;;;;;;;8.15;5.30;;;743.20;1510.40;;;;;;5046075;28;20040;-60
2023/06/30 11:45:05;;;;;;;9.27;5.70;;;743.00;1459.20;;;;;;5049718;28;20025;-60
2023/06/30 11:47:31;;;;;;;5.57;5.00;;;742.90;1484.80;;;;;;5049317;28;20475;-64
2023/06/30 11:49:56;;;;;;;5.72;5.18;;;743.00;1510.40;;;;;;5049059;28;20029;-60
2023/06/30 11:52:22;;;;;;;4.80;4.40;;;743.20;1484.80;;;;;;5049164;28;20021;-60
2023/06/30 11:54:48;;;;;;;6.57;5.60;;;743.30;1510.40;;;;;;5049220;28;20021;-66
2023/06/30 11:57:13;;;;;;;5.68;5.05;;;768.00;1510.40;;;;;;5049855;28;20112;-60
2023/06/30 11:59:39;;;;;;;5.55;4.82;;;768.00;1484.80;;;;;;5049668;28;20033;-63
2023/06/30 12:02:05;;;;;;;7.22;5.28;;;768.10;1510.40;;;;;;5049274;28;20391;-58
2023/06/30 12:04:33;;;;;;;6.00;4.47;;;768.10;1484.80;;;;;;5049713;28;20032;-60
2023/06/30 12:07:02;;;;;;;6.25;5.65;;;768.10;1484.80;;;;;;5049400;28;20020;-63
2023/06/30 12:09:29;;;;;;;5.70;4.65;;;768.30;1561.60;;;;;;5049632;28;20044;-60